Time;durP1;ratioP1;P1;durP2;ratioP2;P2;SDS_P1;SDS_P2;PMS_P1;PMS_P2;Temp;Humidity;BMP_temperature;BMP_pressure;BME280_temperature;BME280_humidity;BME280_pressure;Samples;Min_cycle;Max_cycle;Signal;HPM_P1;HPM_P2
2022/08/25 00:01:13;;;;;;;10.75;5.25;;;;;;;24.70;64.09;101835.38;4944197;28;122116;-81
2022/08/25 00:03:40;;;;;;;13.57;4.97;;;;;;;24.70;64.12;101823.38;4943714;28;122207;-81
2022/08/25 00:06:07;;;;;;;11.05;5.15;;;;;;;24.69;63.71;101828.22;4926889;28;124860;-82
2022/08/25 00:08:50;;;;;;;8.77;5.13;;;;;;;24.62;64.08;101808.41;4924700;28;122922;-81
2022/08/25 00:11:22;;;;;;;9.70;5.03;;;;;;;24.68;64.03;101817.53;4925110;28;122622;-79
2022/08/25 00:13:56;;;;;;;9.03;5.10;;;;;;;24.66;63.96;101818.06;4943841;28;123019;-81
2022/08/25 00:16:22;;;;;;;8.88;5.00;;;;;;;24.61;63.72;101818.88;4942153;28;122284;-81
2022/08/25 00:18:51;;;;;;;10.10;4.97;;;;;;;24.60;63.79;101822.94;4938626;28;122942;-81
2022/08/25 00:21:17;;;;;;;11.55;4.85;;;;;;;24.60;63.81;101827.78;4906974;28;123077;-81
2022/08/25 00:23:44;;;;;;;11.30;5.30;;;;;;;24.60;64.11;101814.50;4947414;28;123609;-81
2022/08/25 00:26:10;;;;;;;8.48;4.95;;;;;;;24.60;63.86;101816.56;4943864;28;122386;-80
2022/08/25 00:28:36;;;;;;;10.38;5.50;;;;;;;24.60;63.97;101813.75;4943140;28;123635;-80
2022/08/25 00:31:03;;;;;;;10.20;4.83;;;;;;;24.58;64.03;101808.66;4936286;28;122710;-81
2022/08/25 00:33:32;;;;;;;9.98;5.18;;;;;;;24.57;64.35;101814.81;4927082;28;122867;-81
2022/08/25 00:35:59;;;;;;;7.93;5.27;;;;;;;24.56;64.09;101810.47;4942260;28;122886;-81
2022/08/25 00:38:25;;;;;;;11.55;5.60;;;;;;;24.52;64.40;101801.59;4927916;28;122868;-81
2022/08/25 00:41:04;;;;;;;10.27;5.37;;;;;;;24.53;64.00;101803.09;4924098;28;122984;-81
2022/08/25 00:43:54;;;;;;;12.13;5.60;;;;;;;24.54;63.91;101811.00;4943279;28;122453;-81
2022/08/25 00:46:24;;;;;;;11.57;5.47;;;;;;;24.53;64.04;101808.72;4931072;28;122018;-81
2022/08/25 00:48:56;;;;;;;9.07;5.60;;;;;;;24.48;64.45;101811.03;4945002;28;123893;-80
2022/08/25 00:51:43;;;;;;;11.07;5.72;;;;;;;24.51;64.38;101816.91;4911033;28;122271;-80
2022/08/25 00:54:14;;;;;;;10.10;6.03;;;;;;;24.49;63.94;101820.97;4940256;28;123429;-80
2022/08/25 00:56:41;;;;;;;10.10;5.90;;;;;;;24.46;64.16;101819.22;4926825;28;126466;-80
2022/08/25 00:59:07;;;;;;;9.82;5.80;;;;;;;24.41;64.58;101811.63;4911859;28;122599;-80
2022/08/25 01:01:33;;;;;;;12.90;6.10;;;;;;;24.42;64.07;101826.41;4943357;28;124532;-80
2022/08/25 01:03:58;;;;;;;10.13;5.70;;;;;;;24.36;64.45;101818.00;4911185;28;125285;-80
2022/08/25 01:06:26;;;;;;;9.60;5.90;;;;;;;24.40;64.47;101829.72;4943206;28;122936;-80
2022/08/25 01:08:53;;;;;;;10.05;6.10;;;;;;;24.35;64.75;101826.94;4946830;28;124191;-80
2022/08/25 01:11:19;;;;;;;9.75;5.88;;;;;;;24.31;64.37;101824.41;4910887;28;121911;-80
2022/08/25 01:13:54;;;;;;;11.83;6.10;;;;;;;24.35;64.21;101838.91;4911712;28;123955;-81
2022/08/25 01:16:20;;;;;;;9.85;5.93;;;;;;;24.33;64.63;101830.25;4942842;28;122848;-80
2022/08/25 01:18:48;;;;;;;11.00;5.83;;;;;;;24.34;64.58;101834.59;4934040;28;122449;-80
2022/08/25 01:21:16;;;;;;;11.90;6.20;;;;;;;24.30;64.83;101831.31;4941997;28;122964;-80
2022/08/25 01:23:43;;;;;;;11.95;6.25;;;;;;;24.30;64.75;101831.31;4925942;28;125653;-80
2022/08/25 01:26:18;;;;;;;11.10;6.00;;;;;;;24.31;65.33;101829.25;4926686;28;123044;-80
2022/08/25 01:31:31;;;;;;;10.65;6.18;;;;;;;24.23;64.98;101817.81;4925801;28;122631;-81
2022/08/25 01:33:57;;;;;;;11.35;6.20;;;;;;;24.18;65.12;101807.41;4926936;28;124988;-80
2022/08/25 01:36:24;;;;;;;10.07;6.25;;;;;;;24.24;64.89;101821.38;4942587;28;122501;-80
2022/08/25 01:38:50;;;;;;;9.37;6.27;;;;;;;24.19;64.80;101812.50;4941617;28;122800;-80
2022/08/25 01:41:25;;;;;;;10.87;6.20;;;;;;;24.21;64.88;101817.56;4927678;28;122260;-80
2022/08/25 01:43:51;;;;;;;10.07;6.13;;;;;;;24.17;64.81;101814.28;4925937;28;122323;-81
2022/08/25 01:46:16;;;;;;;10.20;6.10;;;;;;;24.13;64.67;101811.78;4941176;28;124395;-80
2022/08/25 01:48:43;;;;;;;11.63;6.43;;;;;;;24.20;65.31;101827.28;4927169;28;122555;-80
2022/08/25 01:51:09;;;;;;;9.88;6.13;;;;;;;24.12;65.24;101815.06;4930609;28;122724;-80
2022/08/25 01:53:34;;;;;;;12.07;6.47;;;;;;;24.17;64.73;101831.13;4910203;28;125070;-80
2022/08/25 01:56:10;;;;;;;10.17;6.23;;;;;;;24.11;65.45;101822.72;4941251;28;122825;-81
2022/08/25 01:58:39;;;;;;;13.18;6.40;;;;;;;24.12;65.17;101826.28;4939269;28;122903;-81
2022/08/25 02:01:08;;;;;;;10.63;6.03;;;;;;;24.14;65.46;101826.53;4938915;28;122550;-81
2022/08/25 02:03:37;;;;;;;11.70;6.30;;;;;;;24.08;65.45;101820.94;4908577;28;123761;-80
2022/08/25 02:06:04;;;;;;;11.35;6.38;;;;;;;24.10;65.08;101824.00;4937573;28;122887;-81
2022/08/25 02:08:30;;;;;;;11.10;6.25;;;;;;;24.12;65.56;101827.03;4924264;28;124301;-81
2022/08/25 02:10:55;;;;;;;8.88;6.00;;;;;;;24.14;65.34;101835.72;4922512;28;125478;-81
2022/08/25 02:13:22;;;;;;;10.43;6.13;;;;;;;24.12;64.79;101832.66;4928881;28;122257;-80
2022/08/25 02:15:50;;;;;;;11.38;6.38;;;;;;;24.11;65.38;101830.38;4921525;28;124207;-81
2022/08/25 02:18:17;;;;;;;10.95;6.80;;;;;;;24.09;65.50;101832.91;4945465;28;122385;-80
2022/08/25 02:20:43;;;;;;;11.67;6.30;;;;;;;24.04;64.90;101836.53;4942939;28;122810;-80
2022/08/25 02:23:09;;;;;;;9.97;6.40;;;;;;;24.05;65.06;101827.59;4925395;28;126390;-80
2022/08/25 02:25:37;;;;;;;13.13;7.03;;;;;;;24.06;65.76;101833.97;4925642;28;122337;-80
2022/08/25 02:28:03;;;;;;;11.15;6.65;;;;;;;24.00;65.25;101825.59;4926560;28;124256;-81
2022/08/25 02:30:29;;;;;;;12.23;7.13;;;;;;;24.03;64.69;101832.19;4942238;28;122534;-80
2022/08/25 02:32:56;;;;;;;11.35;6.78;;;;;;;24.02;65.39;101841.88;4923648;28;123340;-81
2022/08/25 02:35:22;;;;;;;11.47;6.90;;;;;;;24.01;65.09;101846.72;4946065;28;122743;-81
2022/08/25 02:37:50;;;;;;;12.77;7.13;;;;;;;23.95;64.90;101834.78;4926921;28;121949;-81
2022/08/25 02:40:16;;;;;;;15.33;7.57;;;;;;;23.97;65.29;101848.28;4925601;28;125158;-81
2022/08/25 02:42:42;;;;;;;10.57;7.35;;;;;;;23.96;65.02;101850.31;4920550;28;125969;-80
2022/08/25 02:45:08;;;;;;;13.27;7.38;;;;;;;23.93;65.30;101845.75;4943574;28;122164;-80
2022/08/25 02:47:35;;;;;;;11.25;7.25;;;;;;;23.92;65.67;101846.28;4909687;28;124798;-80
2022/08/25 02:50:04;;;;;;;11.88;7.90;;;;;;;23.86;65.64;101835.84;4941668;28;123218;-80
2022/08/25 02:52:30;;;;;;;12.05;7.63;;;;;;;23.79;65.33;101821.59;4936491;28;122121;-80
2022/08/25 02:54:55;;;;;;;12.30;7.83;;;;;;;23.78;65.61;101823.66;4943129;28;122144;-80
2022/08/25 02:57:21;;;;;;;16.40;9.00;;;;;;;23.71;66.18;101813.00;4947372;28;123057;-80
2022/08/25 02:59:47;;;;;;;14.75;9.18;;;;;;;23.75;66.05;101830.28;4925688;28;122193;-80
2022/08/25 03:02:14;;;;;;;15.05;8.85;;;;;;;23.71;66.46;101831.84;4928196;28;125499;-80
2022/08/25 03:04:40;;;;;;;16.20;10.17;;;;;;;23.64;66.81;101821.16;4929417;28;122474;-80
2022/08/25 03:07:06;;;;;;;15.00;9.75;;;;;;;23.61;66.02;101816.56;4944680;28;124383;-81
2022/08/25 03:09:31;;;;;;;15.80;9.80;;;;;;;23.62;65.95;101820.91;4928337;28;122972;-80
2022/08/25 03:11:57;;;;;;;14.97;9.90;;;;;;;23.61;66.68;101820.16;4913442;28;122993;-81
2022/08/25 03:14:23;;;;;;;16.17;9.90;;;;;;;23.57;66.46;101817.63;4929418;28;123170;-80
2022/08/25 03:16:48;;;;;;;17.35;10.43;;;;;;;23.57;66.46;101811.25;4945272;28;125439;-80
2022/08/25 03:19:15;;;;;;;16.00;9.98;;;;;;;23.60;66.64;101815.81;4932139;28;121918;-80
2022/08/25 03:21:41;;;;;;;18.00;10.63;;;;;;;23.52;66.28;101803.59;4928526;28;123913;-80
2022/08/25 03:24:06;;;;;;;18.30;10.53;;;;;;;23.59;66.60;101805.91;4945963;28;121989;-80
2022/08/25 03:29:17;;;;;;;19.07;11.17;;;;;;;23.59;67.02;101803.09;4945166;28;125439;-81
2022/08/25 03:31:44;;;;;;;17.65;10.88;;;;;;;23.56;66.93;101798.53;4928568;28;123340;-81
2022/08/25 03:34:17;;;;;;;19.80;11.82;;;;;;;23.55;66.98;101799.78;4928701;28;122142;-81
2022/08/25 03:36:45;;;;;;;21.23;11.63;;;;;;;23.58;66.74;101801.56;4923171;28;124811;-81
2022/08/25 03:39:11;;;;;;;25.80;12.20;;;;;;;23.59;66.89;101800.28;4949058;28;121950;-81
2022/08/25 03:41:38;;;;;;;23.15;12.52;;;;;;;23.58;67.41;101801.56;4943950;28;122290;-80
2022/08/25 03:44:05;;;;;;;22.50;11.88;;;;;;;23.60;67.01;101804.63;4945257;28;122122;-80
2022/08/25 03:46:41;;;;;;;25.27;12.73;;;;;;;23.61;66.68;101802.56;4927241;28;125354;-80
2022/08/25 03:49:11;;;;;;;19.92;12.20;;;;;;;23.60;66.69;101804.63;4944166;28;122286;-80
2022/08/25 03:51:46;;;;;;;23.20;12.80;;;;;;;23.57;66.92;101800.06;4945133;28;122332;-81
2022/08/25 03:54:14;;;;;;;19.30;12.30;;;;;;;23.53;66.96;101791.13;4925328;28;122709;-80
2022/08/25 03:56:40;;;;;;;19.80;12.03;;;;;;;23.59;67.27;101789.09;4943351;28;122344;-80
2022/08/25 03:59:08;;;;;;;21.00;12.80;;;;;;;23.62;67.11;101796.47;4920913;28;122403;-80
2022/08/25 04:01:36;;;;;;;21.85;12.77;;;;;;;23.56;67.21;101787.31;4932103;28;124680;-81
2022/08/25 04:04:23;;;;;;;19.83;12.18;;;;;;;23.57;67.47;101794.44;4933864;28;122652;-80
2022/08/25 04:06:48;;;;;;;25.17;13.60;;;;;;;23.62;66.97;101785.25;4944371;28;122466;-80
2022/08/25 04:09:14;;;;;;;28.55;15.07;;;;;;;23.56;67.05;101782.47;4911751;28;124858;-80
2022/08/25 04:11:40;;;;;;;28.17;14.77;;;;;;;23.63;67.11;101795.19;4925857;28;124501;-80
2022/08/25 04:14:05;;;;;;;29.13;15.10;;;;;;;23.61;67.14;101780.94;4925134;28;125417;-83
2022/08/25 04:16:33;;;;;;;29.73;15.87;;;;;;;23.61;67.07;101780.94;4934716;28;122489;-80
2022/08/25 04:19:07;;;;;;;28.70;15.60;;;;;;;23.66;66.99;101791.38;4946129;28;121803;-80
2022/08/25 04:21:33;;;;;;;33.43;16.37;;;;;;;23.67;67.71;101784.50;4926789;28;123325;-80
2022/08/25 04:23:59;;;;;;;32.75;15.70;;;;;;;23.68;67.43;101783.22;4931563;28;122766;-80
2022/08/25 04:26:29;;;;;;;35.17;15.40;;;;;;;23.71;66.92;101778.63;4943384;28;124509;-80
2022/08/25 04:29:00;;;;;;;35.10;16.00;;;;;;;23.71;67.07;101784.97;4910436;28;123518;-80
2022/08/25 04:31:33;;;;;;;32.90;15.88;;;;;;;23.67;67.07;101781.69;4928747;28;122005;-81
2022/08/25 04:34:04;;;;;;;30.58;15.82;;;;;;;23.72;67.05;101788.53;4943273;28;122257;-80
2022/08/25 04:36:31;;;;;;;27.50;14.48;;;;;;;23.74;67.37;101802.78;4921824;28;122732;-80
2022/08/25 04:38:56;;;;;;;25.17;13.98;;;;;;;23.71;67.34;101793.38;4945375;28;121806;-80
2022/08/25 04:41:23;;;;;;;25.70;13.70;;;;;;;23.79;67.18;101799.97;4941654;28;124045;-80
2022/08/25 04:43:50;;;;;;;27.90;13.77;;;;;;;23.78;66.89;101801.22;4927546;28;123892;-80
2022/08/25 04:46:22;;;;;;;26.10;13.50;;;;;;;23.82;66.92;101804.53;4947884;28;122081;-81
2022/08/25 04:48:50;;;;;;;28.60;13.98;;;;;;;23.87;67.06;101808.56;4943899;28;122238;-80
2022/08/25 04:51:22;;;;;;;26.50;14.25;;;;;;;23.87;66.75;101805.78;4926745;28;122743;-81
2022/08/25 04:53:48;;;;;;;24.92;14.07;;;;;;;23.85;66.93;101811.91;4911190;28;125498;-80
2022/08/25 04:56:17;;;;;;;22.67;13.07;;;;;;;23.92;66.45;101810.59;4926445;28;126490;-81
2022/08/25 04:58:46;;;;;;;20.67;12.82;;;;;;;23.95;66.56;101806.78;4939565;28;124099;-81
2022/08/25 05:01:14;;;;;;;22.92;11.88;;;;;;;23.94;66.69;101804.47;4943323;28;122241;-80
2022/08/25 05:03:41;;;;;;;18.92;12.48;;;;;;;24.02;66.59;101811.81;4926456;28;125677;-80
2022/08/25 05:06:07;;;;;;;17.33;12.07;;;;;;;24.03;66.92;101813.34;4943272;28;123314;-80
2022/08/25 05:08:33;;;;;;;20.80;12.25;;;;;;;24.01;67.28;101807.50;4946578;28;124096;-80
2022/08/25 05:11:04;;;;;;;21.15;12.63;;;;;;;24.07;66.92;101808.22;4927122;28;123177;-79
2022/08/25 05:13:30;;;;;;;18.97;12.43;;;;;;;24.12;66.44;101810.22;4926240;28;123881;-80
2022/08/25 05:15:58;;;;;;;19.40;11.73;;;;;;;24.11;66.78;101797.50;4908382;28;125586;-80
2022/08/25 05:18:27;;;;;;;21.73;12.63;;;;;;;24.17;66.75;101803.09;4927848;28;122079;-80
2022/08/25 05:20:53;;;;;;;19.75;13.23;;;;;;;24.16;66.58;101793.16;4927858;28;122896;-80
2022/08/25 05:23:32;;;;;;;24.05;13.63;;;;;;;24.13;65.92;101785.75;4925973;28;123041;-80
2022/08/25 05:26:03;;;;;;;22.25;13.07;;;;;;;24.21;67.07;101794.38;4941940;28;122265;-80
2022/08/25 05:28:29;;;;;;;20.77;13.15;;;;;;;24.24;66.28;101788.50;4926981;28;122481;-80
2022/08/25 05:31:00;;;;;;;21.00;13.20;;;;;;;24.35;66.91;101796.84;4914026;28;125673;-80
2022/08/25 05:33:26;;;;;;;23.20;13.67;;;;;;;24.36;66.24;101778.75;4941292;28;122143;-80
2022/08/25 05:35:52;;;;;;;26.77;13.90;;;;;;;24.39;66.33;101794.56;4920386;28;124471;-79
2022/08/25 05:38:18;;;;;;;19.85;13.40;;;;;;;24.37;66.34;101783.09;4926497;28;123098;-80
2022/08/25 05:40:44;;;;;;;20.05;12.45;;;;;;;24.41;66.37;101783.56;4939318;28;122584;-80
2022/08/25 05:43:11;;;;;;;17.55;12.30;;;;;;;24.46;66.51;101790.41;4907546;28;125713;-80
2022/08/25 05:45:36;;;;;;;18.40;12.25;;;;;;;24.53;66.06;101803.09;4942011;28;122279;-80
2022/08/25 05:48:02;;;;;;;18.10;12.30;;;;;;;24.57;65.98;101800.78;4942945;28;122584;-80
2022/08/25 05:50:28;;;;;;;17.40;12.00;;;;;;;24.58;65.52;101794.63;4942524;28;122517;-80
2022/08/25 05:52:53;;;;;;;17.03;11.33;;;;;;;24.60;65.71;101785.69;4925172;28;122231;-80
2022/08/25 05:55:19;;;;;;;20.17;11.80;;;;;;;24.65;65.75;101791.28;4940323;28;122609;-80
2022/08/25 05:57:47;;;;;;;17.75;11.27;;;;;;;24.71;66.15;101792.00;4909676;28;122342;-80
2022/08/25 06:00:13;;;;;;;15.82;11.00;;;;;;;24.70;65.73;101784.09;4926995;28;124943;-81
2022/08/25 06:02:40;;;;;;;16.87;12.00;;;;;;;24.76;65.54;101798.84;4925678;28;125781;-81
2022/08/25 06:05:07;;;;;;;19.05;11.90;;;;;;;24.74;65.49;101779.72;4921780;28;122421;-80
2022/08/25 06:07:35;;;;;;;15.17;11.70;;;;;;;24.77;65.09;101777.91;4946982;28;124633;-81
2022/08/25 06:10:08;;;;;;;18.75;11.88;;;;;;;24.85;65.40;101792.91;4926081;28;125781;-81
2022/08/25 06:12:35;;;;;;;18.77;10.97;;;;;;;24.91;65.86;101788.00;4928960;28;122590;-81
2022/08/25 06:15:02;;;;;;;15.55;10.15;;;;;;;24.99;65.77;101793.81;4942192;28;123111;-81
2022/08/25 06:17:28;;;;;;;23.33;10.73;;;;;;;24.99;65.55;101788.94;4927025;28;122822;-81
2022/08/25 06:19:53;;;;;;;13.85;9.45;;;;;;;25.08;66.12;101791.44;4944767;28;124710;-80
2022/08/25 06:22:20;;;;;;;14.83;9.70;;;;;;;25.14;64.46;101790.59;4910149;28;125520;-80
2022/08/25 06:24:46;;;;;;;13.93;9.35;;;;;;;25.21;64.66;101798.44;4928017;28;122645;-81
2022/08/25 06:27:12;;;;;;;13.13;8.60;;;;;;;25.27;64.61;101801.94;4925577;28;124414;-79
2022/08/25 06:29:38;;;;;;;13.18;8.88;;;;;;;25.32;64.83;101798.34;4921095;28;124763;-80
2022/08/25 06:32:04;;;;;;;11.98;8.43;;;;;;;25.32;64.49;101789.91;4921224;28;122557;-80
2022/08/25 06:34:29;;;;;;;12.73;8.05;;;;;;;25.38;64.87;101791.34;4929927;28;125423;-80
2022/08/25 06:36:55;;;;;;;14.73;8.23;;;;;;;25.45;64.78;101790.00;4929190;28;123168;-80
2022/08/25 06:39:21;;;;;;;10.73;7.72;;;;;;;25.60;64.26;101795.19;4930639;28;124150;-80
2022/08/25 06:41:52;;;;;;;10.90;7.35;;;;;;;25.68;63.43;101796.88;4943084;28;122961;-81
2022/08/25 06:44:50;;;;;;;11.68;7.30;;;;;;;25.72;63.03;101796.59;4932709;28;123074;-80
2022/08/25 06:47:17;;;;;;;10.63;6.73;;;;;;;25.75;62.82;101797.56;4930138;28;124736;-80
2022/08/25 06:49:43;;;;;;;10.23;6.43;;;;;;;25.80;62.68;101799.56;4946404;28;122670;-80
2022/08/25 06:52:09;;;;;;;13.27;7.27;;;;;;;25.81;61.89;101799.03;4943913;28;122798;-80
2022/08/25 06:54:35;;;;;;;11.00;6.70;;;;;;;25.75;62.29;101789.13;4910473;28;123729;-80
2022/08/25 06:57:01;;;;;;;11.23;6.80;;;;;;;25.81;62.53;101793.41;4932291;28;125139;-80
2022/08/25 06:59:27;;;;;;;11.55;6.97;;;;;;;25.82;62.44;101792.13;4932243;28;124586;-80
2022/08/25 07:01:53;;;;;;;9.27;6.70;;;;;;;25.89;62.19;101787.94;4928853;28;125749;-80
2022/08/25 07:04:19;;;;;;;11.85;7.18;;;;;;;25.97;61.96;101788.84;4946189;28;123317;-80
2022/08/25 07:06:45;;;;;;;11.45;6.72;;;;;;;25.96;61.78;101779.66;4925799;28;126376;-81
2022/08/25 07:09:11;;;;;;;10.63;6.90;;;;;;;26.06;62.17;101785.66;4911352;28;125470;-80
2022/08/25 07:11:39;;;;;;;12.00;6.07;;;;;;;26.11;61.49;101790.44;4910933;28;122534;-81
2022/08/25 07:14:07;;;;;;;11.02;6.05;;;;;;;26.10;60.86;101783.28;4958521;28;122363;-81
2022/08/25 07:16:32;;;;;;;11.02;5.72;;;;;;;26.14;60.82;101789.38;4942357;28;122401;-81
2022/08/25 07:18:59;;;;;;;9.32;6.15;;;;;;;26.12;61.23;101780.72;4916553;28;122478;-81
2022/08/25 07:21:27;;;;;;;10.85;5.70;;;;;;;26.17;61.21;101791.09;4925956;28;127168;-80
2022/08/25 07:23:53;;;;;;;9.88;5.80;;;;;;;26.17;60.90;101779.09;4945773;28;122037;-81
2022/08/25 07:26:23;;;;;;;11.63;5.50;;;;;;;26.23;60.83;101788.97;4927423;28;122486;-81
2022/08/25 07:28:49;;;;;;;10.67;5.43;;;;;;;26.24;60.74;101782.03;4928163;28;124240;-80
2022/08/25 07:31:16;;;;;;;10.50;5.72;;;;;;;26.32;60.03;101790.63;4906844;28;122523;-81
2022/08/25 07:35:14;;;;;;;11.83;5.40;;;;;;;26.35;59.57;101795.22;4935725;28;122482;-80
2022/08/25 07:36:31;;;;;;;11.43;5.30;;;;;;;26.33;59.04;101785.78;4927647;28;124934;-81
2022/08/25 07:38:58;;;;;;;10.37;5.17;;;;;;;26.33;58.95;101788.59;4924556;28;123123;-81
2022/08/25 07:41:25;;;;;;;10.53;5.43;;;;;;;26.34;59.29;101798.53;4926505;28;124261;-80
2022/08/25 07:43:51;;;;;;;10.23;5.70;;;;;;;26.31;59.59;101791.94;4943091;28;122661;-81
2022/08/25 07:46:36;;;;;;;10.88;5.30;;;;;;;26.30;60.49;101791.19;4942967;28;122963;-80
2022/08/25 07:49:02;;;;;;;10.75;5.30;;;;;;;26.42;59.69;101793.84;4940825;28;122477;-81
2022/08/25 07:51:28;;;;;;;9.35;5.18;;;;;;;26.47;59.21;101805.00;4926959;28;123318;-80
2022/08/25 07:53:53;;;;;;;7.67;4.77;;;;;;;26.50;59.26;101794.72;4940320;28;122697;-81
2022/08/25 07:56:19;;;;;;;10.17;5.17;;;;;;;26.57;58.76;101794.09;4941032;28;123005;-81
2022/08/25 07:58:46;;;;;;;7.18;4.63;;;;;;;26.69;58.67;101803.88;4940549;28;122262;-81
2022/08/25 08:01:17;;;;;;;8.23;4.75;;;;;;;26.80;58.29;101792.44;4932338;28;124769;-81
2022/08/25 08:03:44;;;;;;;9.30;4.57;;;;;;;26.99;58.47;101789.56;4909893;28;124201;-81
2022/08/25 08:06:12;;;;;;;8.95;4.38;;;;;;;27.16;56.87;101783.59;4938823;28;122616;-80
2022/08/25 08:08:43;;;;;;;8.73;4.70;;;;;;;27.36;56.38;101799.84;4924273;28;125926;-81
2022/08/25 08:11:27;;;;;;;10.63;4.55;;;;;;;27.55;55.62;101793.34;4908270;28;122495;-80
2022/08/25 08:14:02;;;;;;;8.48;4.40;;;;;;;27.67;55.47;101798.22;4944071;28;123696;-81
2022/08/25 08:16:30;;;;;;;8.77;4.18;;;;;;;27.72;54.04;101788.16;4924558;28;126081;-81
2022/08/25 08:18:56;;;;;;;13.43;4.60;;;;;;;27.72;53.39;101788.91;4942809;28;123239;-81
2022/08/25 08:21:25;;;;;;;8.35;4.82;;;;;;;27.66;53.78;101799.53;4924905;28;122878;-81
2022/08/25 08:23:52;;;;;;;11.03;5.03;;;;;;;27.59;54.42;101782.50;4941252;28;122477;-80
2022/08/25 08:26:18;;;;;;;13.87;5.40;;;;;;;27.68;55.46;101787.72;4941556;28;122532;-80
2022/08/25 08:28:44;;;;;;;9.53;4.70;;;;;;;27.74;54.16;101779.91;4922901;28;125058;-80
2022/08/25 08:31:10;;;;;;;12.43;4.70;;;;;;;27.78;53.57;101783.16;4941012;28;122528;-81
2022/08/25 08:33:37;;;;;;;8.77;4.40;;;;;;;27.91;52.69;101776.69;4924549;28;123299;-80
2022/08/25 08:36:09;;;;;;;8.32;4.65;;;;;;;28.07;54.44;101775.56;4941775;28;123203;-81
2022/08/25 08:38:59;;;;;;;9.43;4.20;;;;;;;28.27;53.24;101769.22;4936217;28;123492;-81
2022/08/25 08:44:24;;;;;;;9.90;4.37;;;;;;;28.64;53.63;101782.19;4939383;28;123040;-80
2022/08/25 08:47:09;;;;;;;8.48;3.70;;;;;;;28.85;52.18;101784.97;4944184;28;122935;-81
2022/08/25 08:49:56;;;;;;;6.57;3.78;;;;;;;29.06;50.68;101773.63;4942206;28;124548;-80
2022/08/25 08:52:48;;;;;;;7.35;3.70;;;;;;;29.08;50.35;101785.13;4913293;28;122448;-81
2022/08/25 08:56:05;;;;;;;6.90;3.93;;;;;;;28.89;50.90;101771.28;4898402;28;124385;-80
2022/08/25 08:58:42;;;;;;;7.88;4.20;;;;;;;28.82;50.84;101790.94;4920238;28;124100;-80
2022/08/25 09:01:12;;;;;;;7.93;4.05;;;;;;;28.69;50.90;101783.34;4926298;28;123205;-80
2022/08/25 09:04:14;;;;;;;7.65;4.10;;;;;;;28.53;51.30;101776.78;4944184;28;124900;-80
2022/08/25 09:06:48;;;;;;;7.10;3.65;;;;;;;28.40;51.23;101771.25;4940168;28;122868;-81
2022/08/25 09:09:34;;;;;;;7.72;3.97;;;;;;;28.45;53.02;101781.63;4908860;28;122503;-83
2022/08/25 09:12:22;;;;;;;6.27;3.70;;;;;;;28.65;52.85;101782.94;4929966;28;123112;-80
2022/08/25 09:15:11;;;;;;;8.63;3.42;;;;;;;28.91;51.57;101777.13;4937893;28;123115;-80
2022/08/25 09:18:10;;;;;;;5.95;3.40;;;;;;;29.11;51.50;101786.88;4929191;28;124406;-80
2022/08/25 09:20:59;;;;;;;8.30;3.80;;;;;;;29.28;50.66;101787.16;4920556;28;125641;-81
2022/08/25 09:23:56;;;;;;;7.03;3.47;;;;;;;29.28;48.36;101769.44;4939967;28;122476;-80
2022/08/25 09:26:46;;;;;;;7.65;3.50;;;;;;;29.13;49.26;101772.94;4938506;28;122421;-80
2022/08/25 09:29:18;;;;;;;6.07;3.58;;;;;;;28.98;49.75;101770.78;4938690;28;122671;-80
2022/08/25 09:31:44;;;;;;;6.93;3.45;;;;;;;28.77;49.36;101752.34;4938204;28;122412;-80
2022/08/25 09:34:19;;;;;;;8.52;3.60;;;;;;;28.65;50.47;101760.34;4923454;28;124184;-80
2022/08/25 09:36:47;;;;;;;6.60;3.70;;;;;;;28.62;51.02;101750.91;4940634;28;122881;-81
2022/08/25 09:39:13;;;;;;;6.70;3.47;;;;;;;28.72;49.56;101749.09;4940438;28;124489;-80
2022/08/25 09:41:39;;;;;;;6.25;3.78;;;;;;;28.82;50.30;101757.06;4939896;28;122910;-80
2022/08/25 09:44:16;;;;;;;8.63;3.60;;;;;;;28.91;50.12;101757.38;4941168;28;122953;-80
2022/08/25 09:46:54;;;;;;;6.95;3.50;;;;;;;29.01;50.54;101751.97;4924104;28;123092;-80
2022/08/25 09:49:20;;;;;;;7.63;3.67;;;;;;;28.94;49.44;101742.13;4905746;28;125221;-80
2022/08/25 09:51:46;;;;;;;8.25;4.00;;;;;;;28.83;50.20;101742.41;4937123;28;122565;-80
2022/08/25 09:54:11;;;;;;;7.53;3.58;;;;;;;28.89;50.81;101745.13;4939120;28;124897;-81
2022/08/25 09:57:00;;;;;;;6.70;3.40;;;;;;;28.98;50.75;101733.31;4921753;28;126130;-80
2022/08/25 09:59:31;;;;;;;6.37;3.40;;;;;;;29.21;50.25;101736.25;4925947;28;123019;-80
2022/08/25 10:01:59;;;;;;;7.63;3.40;;;;;;;29.37;49.91;101735.03;4936794;28;122591;-80
2022/08/25 10:04:32;;;;;;;7.30;3.60;;;;;;;29.51;50.48;101736.41;4939545;28;122681;-80
2022/08/25 10:07:01;;;;;;;9.10;3.58;;;;;;;29.66;48.94;101735.72;4937788;28;123085;-80
2022/08/25 10:09:33;;;;;;;7.15;3.50;;;;;;;29.72;48.32;101727.81;4920711;28;125872;-80
2022/08/25 10:12:03;;;;;;;6.23;3.60;;;;;;;29.61;47.67;101726.09;4925690;28;123076;-80
2022/08/25 10:14:35;;;;;;;6.00;3.60;;;;;;;29.43;48.85;101724.31;4942309;28;124577;-80
2022/08/25 10:17:25;;;;;;;6.27;3.50;;;;;;;29.29;49.17;101726.50;4925467;28;126063;-82
2022/08/25 10:19:53;;;;;;;6.77;3.50;;;;;;;29.14;49.31;101728.50;4949477;28;122783;-81
2022/08/25 10:22:31;;;;;;;7.55;4.07;;;;;;;28.97;50.71;101714.84;4922471;28;124397;-81
2022/08/25 10:25:01;;;;;;;6.90;3.80;;;;;;;28.81;50.27;101711.13;4926399;28;124144;-80
2022/08/25 10:27:57;;;;;;;7.43;3.67;;;;;;;28.69;50.23;101716.34;4925408;28;123193;-80
2022/08/25 10:30:28;;;;;;;8.27;3.67;;;;;;;28.46;50.30;101703.38;4937416;28;123781;-80
2022/08/25 10:33:09;;;;;;;8.10;4.00;;;;;;;28.43;50.89;101716.53;4942413;28;123512;-80
2022/08/25 10:36:19;;;;;;;5.53;3.35;;;;;;;28.38;52.16;101709.69;4924520;28;123031;-80
2022/08/25 10:38:55;;;;;;;7.78;3.72;;;;;;;28.43;51.18;101705.22;4920981;28;124159;-81
2022/08/25 10:41:29;;;;;;;7.43;3.60;;;;;;;28.37;51.61;101698.97;4903293;28;123587;-81
2022/08/25 10:47:54;;;;;;;6.93;3.40;;;;;;;28.46;51.11;101709.75;4938323;28;124181;-80
2022/08/25 10:50:37;;;;;;;8.18;3.50;;;;;;;28.45;50.91;101696.22;4893735;28;123533;-79
2022/08/25 10:53:13;;;;;;;6.70;3.43;;;;;;;28.48;51.11;101693.03;4925076;28;123923;-80
2022/08/25 10:55:46;;;;;;;6.90;3.65;;;;;;;28.53;50.81;101674.44;4904784;28;123253;-80
2022/08/25 10:58:33;;;;;;;7.57;3.30;;;;;;;28.65;50.04;101679.25;4934615;28;123213;-80
2022/08/25 11:01:14;;;;;;;11.80;3.67;;;;;;;28.70;49.69;101672.69;4927390;28;122661;-80
2022/08/25 11:03:45;;;;;;;7.90;3.60;;;;;;;28.82;50.32;101681.59;4909836;28;123119;-80
2022/08/25 11:06:19;;;;;;;8.65;3.65;;;;;;;28.87;50.46;101663.03;4925452;28;124643;-79
2022/08/25 11:08:52;;;;;;;8.40;3.90;;;;;;;28.96;49.43;101674.56;4947442;28;122988;-81
2022/08/25 11:11:41;;;;;;;6.32;3.38;;;;;;;28.90;50.02;101671.13;4946420;28;122829;-80
2022/08/25 11:14:20;;;;;;;7.57;3.83;;;;;;;28.86;50.19;101655.84;4925723;28;124700;-79
2022/08/25 11:17:11;;;;;;;7.38;3.20;;;;;;;28.93;48.57;101666.44;4936939;28;124118;-79
2022/08/25 11:19:42;;;;;;;8.00;3.53;;;;;;;28.89;49.62;101654.75;4941381;28;122516;-77
2022/08/25 11:22:24;;;;;;;7.50;3.40;;;;;;;28.96;50.12;101649.13;4941310;28;122464;-77
2022/08/25 11:25:10;;;;;;;7.28;3.65;;;;;;;29.09;49.37;101636.94;4911332;28;122480;-78
2022/08/25 11:27:44;;;;;;;8.47;3.43;;;;;;;29.30;49.37;101639.66;4927228;28;123668;-78
2022/08/25 11:30:13;;;;;;;6.15;3.35;;;;;;;29.38;48.99;101634.78;4922528;28;125211;-78
2022/08/25 11:32:45;;;;;;;6.03;3.47;;;;;;;29.47;48.07;101642.00;4947836;28;122577;-78
2022/08/25 11:35:13;;;;;;;6.97;3.50;;;;;;;29.43;48.33;101644.41;4939813;28;124476;-78
2022/08/25 11:38:25;;;;;;;9.15;3.53;;;;;;;29.42;48.74;101640.06;4924511;28;123661;-79